createdAt,value
2018-01-16T00:01:14.672Z,100313.40
2018-01-16T00:04:15.719Z,100295.22
2018-01-16T00:07:16.723Z,100296.58
2018-01-16T00:10:17.699Z,100292.02
2018-01-16T00:13:18.650Z,100286.88
2018-01-16T00:16:19.651Z,100280.06
2018-01-16T00:19:20.605Z,100268.74
2018-01-16T00:22:21.607Z,100264.65
2018-01-16T00:25:22.549Z,100257.13
2018-01-16T00:28:23.540Z,100249.20
2018-01-16T00:31:24.523Z,100240.79
2018-01-16T00:34:25.458Z,100237.90
2018-01-16T00:37:26.459Z,100256.96
2018-01-16T00:40:27.431Z,100239.49
2018-01-16T00:43:28.385Z,100231.44
2018-01-16T00:46:29.383Z,100224.15
2018-01-16T00:49:30.339Z,100228.23
2018-01-16T00:52:31.347Z,100222.21
2018-01-16T00:55:32.356Z,100232.33
2018-01-16T00:58:33.282Z,100233.21
2018-01-16T01:01:34.283Z,100224.22
2018-01-16T01:04:35.607Z,100223.45
2018-01-16T01:07:36.534Z,100221.02
2018-01-16T01:10:37.527Z,100225.70
2018-01-16T01:13:38.491Z,100241.22
2018-01-16T01:16:39.483Z,100233.94
2018-01-16T01:19:40.430Z,100243.94
2018-01-16T01:22:41.469Z,100235.06
2018-01-16T01:25:42.407Z,100236.43
2018-01-16T01:28:43.366Z,100231.56
2018-01-16T01:31:44.356Z,100232.69
2018-01-16T01:34:45.307Z,100232.45
2018-01-16T01:37:47.319Z,100229.72
2018-01-16T01:40:48.287Z,100224.52
2018-01-16T01:43:49.263Z,100225.17
2018-01-16T01:46:50.214Z,100226.33
2018-01-16T01:49:51.223Z,100212.47
2018-01-16T01:52:52.162Z,100220.88
2018-01-16T01:55:53.160Z,100207.09
2018-01-16T01:58:54.135Z,100210.05
2018-01-16T02:01:55.087Z,100219.82
2018-01-16T02:04:56.084Z,100228.88
2018-01-16T02:07:57.046Z,100238.17
2018-01-16T02:10:58.031Z,100233.31
2018-01-16T02:13:58.979Z,100226.26
2018-01-16T02:16:59.983Z,100230.11
2018-01-16T02:20:00.969Z,100216.49
2018-01-16T02:23:01.902Z,100222.48
2018-01-16T02:26:02.908Z,100207.85
2018-01-16T02:29:03.879Z,100214.43
2018-01-16T02:32:04.855Z,100222.06
2018-01-16T02:35:05.819Z,100209.57
2018-01-16T02:38:06.788Z,100195.71
2018-01-16T02:41:07.767Z,100205.01
2018-01-16T02:44:08.743Z,100184.35
2018-01-16T02:47:09.756Z,100187.31
2018-01-16T02:50:11.043Z,100175.83
2018-01-16T02:53:12.080Z,100180.27
2018-01-16T02:56:13.399Z,100182.17
2018-01-16T02:59:14.401Z,100190.68
2018-01-16T03:02:15.403Z,100197.80
2018-01-16T03:05:16.355Z,100189.86
2018-01-16T03:08:17.350Z,100179.86
2018-01-16T03:11:18.303Z,100173.53
2018-01-16T03:14:19.301Z,100177.14
2018-01-16T03:17:20.257Z,100161.39
2018-01-16T03:20:21.595Z,100158.43
2018-01-16T03:23:22.498Z,100157.61
2018-01-16T03:26:23.490Z,100147.30
2018-01-16T03:29:24.452Z,100155.47
2018-01-16T03:32:25.443Z,100143.53
2018-01-16T03:35:26.414Z,100137.31
2018-01-16T03:38:27.391Z,100135.12
2018-01-16T03:41:28.372Z,100137.37
2018-01-16T03:44:29.318Z,100137.07
2018-01-16T03:47:30.311Z,100140.68
2018-01-16T03:50:31.262Z,100139.86
2018-01-16T03:53:32.260Z,100130.92
2018-01-16T03:56:33.243Z,100116.48
2018-01-16T03:59:34.210Z,100095.06
2018-01-16T04:02:35.159Z,100110.03
2018-01-16T04:05:36.170Z,100105.95
2018-01-16T04:08:37.106Z,100075.18
2018-01-16T04:11:38.106Z,100068.97
2018-01-16T04:14:39.074Z,100063.82
2018-01-16T04:17:40.199Z,100068.73
2018-01-16T04:20:41.123Z,100045.12
2018-01-16T04:23:42.111Z,100030.15
2018-01-16T04:26:43.063Z,100021.98
2018-01-16T04:29:44.054Z,100016.61
2018-01-16T04:32:45.003Z,100020.16
2018-01-16T04:35:46.011Z,100010.63
2018-01-16T04:38:46.964Z,100020.47
2018-01-16T04:41:47.959Z,100032.17
2018-01-16T04:44:48.899Z,100027.50
2018-01-16T04:47:49.899Z,100029.21
2018-01-16T04:50:50.850Z,100029.21
2018-01-16T04:53:52.090Z,100023.18
2018-01-16T04:56:52.999Z,100024.90
2018-01-16T04:59:53.999Z,100023.77
2018-01-16T05:02:54.948Z,100014.78
2018-01-16T05:05:56.008Z,100021.05
2018-01-16T05:08:57.014Z,100018.56
2018-01-16T05:11:57.971Z,100012.46
2018-01-16T05:15:00.008Z,100000.68
2018-01-16T05:18:00.949Z,99992.98
2018-01-16T05:21:01.940Z,99995.82
2018-01-16T05:24:02.886Z,99990.30
2018-01-16T05:27:04.139Z,99990.11
2018-01-16T05:30:05.054Z,99973.81
2018-01-16T05:33:06.068Z,99955.00
2018-01-16T05:36:07.016Z,99944.11
2018-01-16T05:39:08.016Z,99950.81
2018-01-16T05:42:08.962Z,99940.03
2018-01-16T05:45:09.978Z,99941.18
2018-01-16T05:48:10.942Z,99934.09
2018-01-16T05:51:11.894Z,99926.02
2018-01-16T05:54:12.895Z,99935.90
2018-01-16T05:57:13.883Z,99928.14
2018-01-16T06:00:15.001Z,99932.91
2018-01-16T06:03:16.004Z,99924.61
2018-01-16T06:06:16.999Z,99919.54
2018-01-16T06:09:17.966Z,99938.72
2018-01-16T06:12:18.951Z,99937.04
2018-01-16T06:15:19.897Z,99929.55
2018-01-16T06:18:20.899Z,99904.90
2018-01-16T06:21:21.858Z,99910.81
2018-01-16T06:24:22.848Z,99916.13
2018-01-16T06:27:23.835Z,99909.23
2018-01-16T06:30:24.785Z,99905.01
2018-01-16T06:33:25.770Z,99915.47
2018-01-16T06:36:26.699Z,99939.92
2018-01-16T06:39:27.603Z,99946.06
2018-01-16T06:42:28.730Z,99954.70
2018-01-16T06:45:29.634Z,99961.39
2018-01-16T06:48:30.567Z,99954.79
2018-01-16T06:51:31.480Z,99954.48
2018-01-16T06:54:33.328Z,99943.21
2018-01-16T06:57:34.226Z,99947.31
2018-01-16T07:00:35.150Z,99945.04
2018-01-16T07:03:36.071Z,99943.68
2018-01-16T07:06:37.154Z,99949.36
2018-01-16T07:09:38.061Z,99943.13
2018-01-16T07:12:39.214Z,99939.27
2018-01-16T07:15:40.182Z,99952.31
2018-01-16T07:18:41.117Z,99954.50
2018-01-16T07:21:42.031Z,99943.37
2018-01-16T07:24:42.983Z,99945.86
2018-01-16T07:27:43.919Z,99945.62
2018-01-16T07:30:44.836Z,99921.40
2018-01-16T07:33:45.919Z,99933.45
2018-01-16T07:36:46.830Z,99942.21
2018-01-16T07:39:47.743Z,99930.85
2018-01-16T07:42:48.723Z,99940.94
2018-01-16T07:45:49.625Z,99960.61
2018-01-16T07:48:50.551Z,99993.33
2018-01-16T07:51:51.468Z,100009.33
2018-01-16T07:54:52.395Z,100015.60
2018-01-16T07:57:53.299Z,100008.20
2018-01-16T08:00:54.241Z,100007.06
2018-01-16T08:03:55.155Z,100004.34
2018-01-16T08:06:56.102Z,100031.62
2018-01-16T08:09:56.990Z,100023.44
2018-01-16T08:12:57.919Z,100016.85
2018-01-16T08:15:58.818Z,100012.41
2018-01-16T08:18:59.774Z,100002.78
2018-01-16T08:22:01.098Z,100003.55
2018-01-16T08:25:02.022Z,100011.42
2018-01-16T08:28:02.991Z,100006.43
2018-01-16T08:31:03.882Z,100014.48
2018-01-16T08:34:04.990Z,100011.98
2018-01-16T08:37:05.886Z,100014.17
2018-01-16T08:40:07.147Z,100019.49
2018-01-16T08:43:08.043Z,100016.44
2018-01-16T08:46:08.974Z,100029.49
2018-01-16T08:49:10.075Z,100023.13
2018-01-16T08:52:11.034Z,100021.46
2018-01-16T08:55:11.940Z,100013.50
2018-01-16T08:58:13.201Z,99999.27
2018-01-16T09:01:14.159Z,99993.27
2018-01-16T09:04:15.104Z,99999.50
2018-01-16T09:07:16.056Z,99994.63
2018-01-16T09:10:17.411Z,100006.09
2018-01-16T09:13:18.307Z,100014.50
2018-01-16T09:16:19.295Z,100011.00
2018-01-16T09:19:20.260Z,100012.59
2018-01-16T09:22:21.495Z,100017.23
2018-01-16T09:25:22.399Z,100023.28
2018-01-16T09:28:23.319Z,100017.23
2018-01-16T09:31:24.218Z,100016.69
2018-01-16T09:34:25.315Z,100010.64
2018-01-16T09:37:26.221Z,100007.37
2018-01-16T09:40:27.179Z,100000.54
2018-01-16T09:43:28.084Z,99996.10
2018-01-16T09:46:29.052Z,99996.91
2018-01-16T09:49:29.963Z,99983.82
2018-01-16T09:52:30.907Z,99982.46
2018-01-16T09:55:31.819Z,99982.46
2018-01-16T09:58:32.777Z,99976.77
2018-01-16T10:01:33.675Z,99977.00
2018-01-16T10:04:34.826Z,99976.77
2018-01-16T10:07:35.726Z,99983.28
2018-01-16T10:10:36.703Z,99984.96
2018-01-16T10:13:37.599Z,99967.23
2018-01-16T10:16:38.526Z,99964.49
2018-01-16T10:19:39.422Z,99971.00
2018-01-16T10:22:40.571Z,99970.78
2018-01-16T10:25:41.522Z,99961.22
2018-01-16T10:28:42.442Z,99959.85
2018-01-16T10:31:43.370Z,99949.73
2018-01-16T10:34:44.279Z,99940.99
2018-01-16T10:37:45.191Z,99948.58
2018-01-16T10:40:46.207Z,99948.82
2018-01-16T10:43:47.115Z,99938.72
2018-01-16T10:46:48.155Z,99934.26
2018-01-16T10:49:49.069Z,99919.62
2018-01-16T10:52:50.027Z,99927.22
2018-01-16T10:55:50.923Z,99936.22
2018-01-16T10:58:51.853Z,99931.31
2018-01-16T11:01:52.772Z,99925.08
2018-01-16T11:04:54.002Z,99940.86
2018-01-16T11:07:54.899Z,99933.26
2018-01-16T11:10:56.047Z,99942.81
2018-01-16T11:13:56.965Z,99950.99
2018-01-16T11:16:58.203Z,99974.19
2018-01-16T11:19:59.131Z,100002.83
2018-01-16T11:23:00.096Z,99988.60
2018-01-16T11:26:00.978Z,99996.02
2018-01-16T11:29:02.934Z,99969.04
2018-01-16T11:32:03.827Z,99950.77
2018-01-16T11:35:05.072Z,99948.04
2018-01-16T11:38:05.975Z,99965.77
2018-01-16T11:41:06.916Z,99972.00
2018-01-16T11:44:07.815Z,99970.09
2018-01-16T11:47:08.763Z,99964.40
2018-01-16T11:50:09.667Z,99970.51
2018-01-16T11:53:10.723Z,99965.87
2018-01-16T11:56:11.638Z,99965.18
2018-01-16T11:59:12.606Z,99952.81
2018-01-16T12:02:13.524Z,99971.78
2018-01-16T12:05:14.478Z,99961.78
2018-01-16T12:08:15.387Z,99954.73
2018-01-16T12:11:16.314Z,99967.82
2018-01-16T12:14:17.248Z,99953.27
2018-01-16T12:17:18.183Z,99948.04
2018-01-16T12:20:19.086Z,99941.44
2018-01-16T12:23:20.047Z,99960.54
2018-01-16T12:26:20.942Z,99944.07
2018-01-16T12:29:21.867Z,99943.03
2018-01-16T12:32:22.816Z,99938.26
2018-01-16T12:35:23.751Z,99945.08
2018-01-16T12:38:24.657Z,99958.95
2018-01-16T12:41:25.570Z,99953.64
2018-01-16T12:44:26.468Z,99949.04
2018-01-16T12:47:27.415Z,99941.21
2018-01-16T12:50:28.322Z,99923.25
2018-01-16T12:53:29.249Z,99922.93
2018-01-16T12:56:30.186Z,99939.08
2018-01-16T12:59:31.082Z,99955.22
2018-01-16T13:02:32.002Z,99966.46
2018-01-16T13:05:32.915Z,99982.06
2018-01-16T13:08:34.051Z,99995.93
2018-01-16T13:11:34.971Z,99996.26
2018-01-16T13:14:36.099Z,100022.17
2018-01-16T13:17:37.002Z,100021.94
2018-01-16T13:20:37.927Z,100008.30
2018-01-16T13:23:38.827Z,100011.62
2018-01-16T13:26:39.747Z,99993.07
2018-01-16T13:29:40.671Z,99997.15
2018-01-16T13:32:41.746Z,99991.70
2018-01-16T13:35:42.638Z,99984.11
2018-01-16T13:38:43.625Z,100009.21
2018-01-16T13:41:44.523Z,100010.03
2018-01-16T13:44:45.446Z,100024.21
2018-01-16T13:47:46.362Z,100021.17
2018-01-16T13:50:47.291Z,100023.08
2018-01-16T13:53:48.208Z,100028.54
2018-01-16T13:56:49.144Z,100025.04
2018-01-16T13:59:50.044Z,100017.76
2018-01-16T14:02:51.170Z,100022.31
2018-01-16T14:05:52.067Z,100034.67
2018-01-16T14:08:53.126Z,100051.19
2018-01-16T14:11:54.027Z,100065.38
2018-01-16T14:14:54.967Z,100062.42
2018-01-16T14:17:55.876Z,100081.29
2018-01-16T14:20:56.822Z,100080.28
2018-01-16T14:23:57.726Z,100088.47
2018-01-16T14:26:58.659Z,100086.29
2018-01-16T14:29:59.550Z,100096.20
2018-01-16T14:33:00.611Z,100104.02
2018-01-16T14:36:01.595Z,100098.93
2018-01-16T14:39:02.563Z,100110.07
2018-01-16T14:42:03.504Z,100104.38
2018-01-16T14:45:04.411Z,100092.34
2018-01-16T14:48:05.355Z,100087.42
2018-01-16T14:51:06.256Z,100077.87
2018-01-16T14:54:07.211Z,100074.24
2018-01-16T14:57:08.118Z,100088.70
2018-01-16T15:00:09.155Z,100099.03
2018-01-16T15:03:10.046Z,100108.81
2018-01-16T15:06:11.003Z,100099.25
2018-01-16T15:09:11.899Z,100090.17
2018-01-16T15:12:12.971Z,100073.57
2018-01-16T15:15:13.971Z,100070.84
2018-01-16T15:18:14.917Z,100069.47
2018-01-16T15:21:15.914Z,100062.65
2018-01-16T15:24:16.794Z,100069.15
2018-01-16T15:27:17.737Z,100058.01
2018-01-16T15:30:18.672Z,100056.65
2018-01-16T15:33:19.587Z,100051.19
2018-01-16T15:36:20.539Z,100051.19
2018-01-16T15:39:21.467Z,100070.84
2018-01-16T15:42:22.411Z,100075.75
2018-01-16T15:45:23.359Z,100096.44
2018-01-16T15:48:24.267Z,100031.98
2018-01-16T15:51:25.705Z,100092.35
2018-01-16T15:54:26.628Z,100091.76
2018-01-16T15:57:27.581Z,100098.81
2018-01-16T16:00:28.516Z,100100.18
2018-01-16T16:03:29.418Z,100100.99
2018-01-16T16:06:30.523Z,100094.63
2018-01-16T16:09:31.459Z,100109.06
2018-01-16T16:12:32.406Z,100109.64
2018-01-16T16:15:33.834Z,100121.34
2018-01-16T16:18:34.771Z,100113.74
2018-01-16T16:21:35.666Z,100117.83
2018-01-16T16:24:36.623Z,100113.38
2018-01-16T16:27:37.521Z,100114.74
2018-01-16T16:30:38.733Z,100119.42
2018-01-16T16:33:39.655Z,100114.20
2018-01-16T16:36:40.583Z,100105.78
2018-01-16T16:39:41.484Z,100109.28
2018-01-16T16:42:42.425Z,100104.42
2018-01-16T16:45:43.340Z,100109.88
2018-01-16T16:48:44.261Z,100118.61
2018-01-16T16:51:45.151Z,100120.20
2018-01-16T16:54:46.120Z,100105.78
2018-01-16T16:57:47.035Z,100101.69
2018-01-16T17:00:47.951Z,100099.50
2018-01-16T17:03:48.863Z,100105.78
2018-01-16T17:06:49.788Z,100118.84
2018-01-16T17:09:50.720Z,100116.10
2018-01-16T17:12:51.646Z,100107.14
2018-01-16T17:15:52.551Z,100118.84
2018-01-16T17:18:53.472Z,100105.20
2018-01-16T17:21:54.468Z,100104.42
2018-01-16T17:24:55.495Z,100101.92
2018-01-16T17:27:56.427Z,100118.29
2018-01-16T17:30:57.346Z,100110.65
2018-01-16T17:33:58.328Z,100104.64
2018-01-16T17:36:59.268Z,100122.39
2018-01-16T17:40:00.943Z,100125.35
2018-01-16T17:43:01.975Z,100131.58
2018-01-16T17:46:03.204Z,100137.86
2018-01-16T17:49:04.184Z,100145.23
2018-01-16T17:52:05.107Z,100143.85
2018-01-16T17:55:06.112Z,100149.55
2018-01-16T17:58:07.079Z,100131.03
2018-01-16T18:01:08.055Z,100132.63
2018-01-16T18:04:09.059Z,100113.52
2018-01-16T18:07:09.999Z,100122.25
2018-01-16T18:10:11.010Z,100120.89
2018-01-16T18:13:11.974Z,100114.07
2018-01-16T18:16:12.911Z,100107.25
2018-01-16T18:19:13.967Z,100096.69
2018-01-16T18:22:14.966Z,100113.84
2018-01-16T18:25:16.108Z,100130.44
2018-01-16T18:28:17.033Z,100137.86
2018-01-16T18:31:18.051Z,100140.35
2018-01-16T18:34:19.010Z,100135.83
2018-01-16T18:37:20.028Z,100118.20
2018-01-16T18:40:20.982Z,100111.00
2018-01-16T18:43:22.023Z,100112.51
2018-01-16T18:46:22.942Z,100109.10
2018-01-16T18:49:23.920Z,100118.53
2018-01-16T18:52:24.921Z,100122.77
2018-01-16T18:55:25.887Z,100127.32
2018-01-16T18:58:26.844Z,100112.73
2018-01-16T19:01:27.831Z,100113.51
2018-01-16T19:04:28.770Z,100121.84
2018-01-16T19:07:29.772Z,100100.99
2018-01-16T19:10:30.746Z,100110.78
2018-01-16T19:13:31.691Z,100115.57
2018-01-16T19:16:32.706Z,100108.19
2018-01-16T19:19:33.682Z,100093.94
2018-01-16T19:22:34.640Z,100097.35
2018-01-16T19:25:35.639Z,100107.61
2018-01-16T19:28:36.595Z,100104.11
2018-01-16T19:31:37.607Z,100098.05
2018-01-16T19:34:38.582Z,100097.12
2018-01-16T19:37:39.503Z,100106.90
2018-01-16T19:40:40.435Z,100105.09
2018-01-16T19:43:41.454Z,100102.03
2018-01-16T19:46:42.411Z,100097.12
2018-01-16T19:49:44.428Z,100094.78
2018-01-16T19:52:45.378Z,100097.71
2018-01-16T19:55:46.375Z,100084.61
2018-01-16T19:58:47.357Z,100073.03
2018-01-16T20:01:48.327Z,100070.30
2018-01-16T20:04:49.286Z,100061.33
2018-01-16T20:07:50.573Z,100059.15
2018-01-16T20:10:51.558Z,100052.92
2018-01-16T20:13:52.518Z,100050.73
2018-01-16T20:16:54.538Z,100049.95
2018-01-16T20:19:55.491Z,100058.47
2018-01-16T20:22:56.499Z,100073.25
2018-01-16T20:25:57.464Z,100079.30
2018-01-16T20:28:58.447Z,100084.63
2018-01-16T20:31:59.410Z,100094.87
2018-01-16T20:35:00.401Z,100095.69
2018-01-16T20:38:01.375Z,100096.38
2018-01-16T20:41:03.223Z,100103.05
2018-01-16T20:44:04.126Z,100104.78
2018-01-16T20:47:05.187Z,100112.74
2018-01-16T20:50:06.106Z,100112.29
2018-01-16T20:53:07.104Z,100113.65
2018-01-16T20:56:08.046Z,100128.43
2018-01-16T20:59:09.071Z,100125.33
2018-01-16T21:02:09.994Z,100119.55
2018-01-16T21:05:11.006Z,100133.21
2018-01-16T21:08:11.927Z,100130.24
2018-01-16T21:11:12.875Z,100122.60
2018-01-16T21:14:13.822Z,100116.50
2018-01-16T21:17:14.870Z,100115.91
2018-01-16T21:20:15.825Z,100111.82
2018-01-16T21:23:16.859Z,100102.85
2018-01-16T21:26:17.846Z,100111.34
2018-01-16T21:29:18.790Z,100108.26
2018-01-16T21:32:19.715Z,100103.02
2018-01-16T21:35:20.731Z,100104.20
2018-01-16T21:38:21.735Z,100107.07
2018-01-16T21:41:22.827Z,100111.82
2018-01-16T21:44:23.807Z,100107.27
2018-01-16T21:47:24.823Z,100109.00
2018-01-16T21:50:26.039Z,100101.02
2018-01-16T21:53:27.063Z,100102.61
2018-01-16T21:56:27.982Z,100100.56
2018-01-16T21:59:29.070Z,100097.91
2018-01-16T22:02:30.083Z,100092.82
2018-01-16T22:05:31.029Z,100075.99
2018-01-16T22:08:32.054Z,100062.67
2018-01-16T22:11:33.082Z,100060.84
2018-01-16T22:14:34.350Z,100060.97
2018-01-16T22:17:35.262Z,100056.41
2018-01-16T22:20:36.269Z,100063.90
2018-01-16T22:23:37.299Z,100059.35
2018-01-16T22:26:38.255Z,100057.76
2018-01-16T22:29:39.259Z,100065.71
2018-01-16T22:32:40.810Z,100064.11
2018-01-16T22:35:42.039Z,100058.79
2018-01-16T22:38:42.998Z,100046.05
2018-01-16T22:41:44.139Z,100039.55
2018-01-16T22:44:45.088Z,100026.04
2018-01-16T22:47:46.076Z,100026.58
2018-01-16T22:50:47.041Z,100020.13
2018-01-16T22:53:48.086Z,100024.89
2018-01-16T22:56:49.087Z,100027.62
2018-01-16T22:59:50.095Z,100032.02
2018-01-16T23:02:51.048Z,100020.65
2018-01-16T23:05:52.026Z,100022.37
2018-01-16T23:08:52.975Z,100015.10
2018-01-16T23:11:53.903Z,100015.41
2018-01-16T23:14:54.867Z,100009.95
2018-01-16T23:17:55.835Z,100013.94
2018-01-16T23:20:56.804Z,100000.62
2018-01-16T23:23:57.835Z,100007.79
2018-01-16T23:26:58.749Z,100006.79
2018-01-16T23:29:59.730Z,100005.19
2018-01-16T23:33:00.687Z,100004.37
2018-01-16T23:36:01.711Z,100013.45
2018-01-16T23:39:02.683Z,100023.58
2018-01-16T23:42:03.620Z,100006.76
2018-01-16T23:45:04.635Z,100001.09
2018-01-16T23:48:05.591Z,100000.62
2018-01-16T23:51:06.554Z,99997.30
2018-01-16T23:54:07.699Z,100002.30
2018-01-16T23:57:08.710Z,99989.34
